Time,TemperatureF,DewpointF,PressureIn,WindDirection,WindDirectionDegrees,WindSpeedMPH,WindSpeedGustMPH,Humidity,HourlyPrecipIn,Conditions,Clouds,dailyrainin,SoftwareType,DateUTC
2013-01-31 00:09:00,52.3,51.8,29.01,NNE,22,1.1,-999.0,98,-99.99,,,0.04,Acu-Link.com,2013-01-31 05:09:00,
2013-01-31 00:24:00,52.3,51.8,29.00,ESE,112,2.7,-999.0,98,-99.99,,,0.09,Acu-Link.com,2013-01-31 05:24:00,
2013-01-31 00:39:00,52.3,51.8,28.99,ESE,112,2.7,-999.0,98,-99.99,,,0.19,Acu-Link.com,2013-01-31 05:39:00,
2013-01-31 00:54:00,53.1,52.5,29.03,South,180,4.2,-999.0,98,-99.99,,,0.24,Acu-Link.com,2013-01-31 05:54:00,
2013-01-31 01:09:00,52.3,51.8,29.01,NW,315,2.7,-999.0,98,-99.99,,,0.33,Acu-Link.com,2013-01-31 06:09:00,
2013-01-31 01:24:00,52.7,52.2,29.00,West,270,3.7,-999.0,98,-99.99,,,0.36,Acu-Link.com,2013-01-31 06:24:00,
2013-01-31 01:39:00,52.2,51.7,28.98,West,270,3.7,-999.0,98,-99.99,,,0.42,Acu-Link.com,2013-01-31 06:39:00,
2013-01-31 01:54:00,51.8,51.3,28.97,SW,225,2.2,-999.0,98,-99.99,,,0.45,Acu-Link.com,2013-01-31 06:54:00,
2013-01-31 02:10:00,51.4,50.9,28.99,South,180,3.2,-999.0,98,-99.99,,,0.48,Acu-Link.com,2013-01-31 07:10:00,
2013-01-31 02:25:00,51.3,50.8,28.98,West,270,2.7,-999.0,98,-99.99,,,0.50,Acu-Link.com,2013-01-31 07:25:00,
2013-01-31 02:40:00,49.6,49.1,29.01,West,270,5.8,-999.0,98,-99.99,,,0.57,Acu-Link.com,2013-01-31 07:40:00,
2013-01-31 02:55:00,48.2,47.7,29.01,West,270,3.7,-999.0,98,-99.99,,,0.60,Acu-Link.com,2013-01-31 07:55:00,
2013-01-31 03:10:00,47.3,46.8,29.00,West,270,3.7,-999.0,98,-99.99,,,0.63,Acu-Link.com,2013-01-31 08:10:00,
2013-01-31 03:25:00,46.4,45.0,29.04,WSW,247,8.3,-999.0,95,-99.99,,,0.64,Acu-Link.com,2013-01-31 08:25:00,
2013-01-31 03:40:00,43.7,40.7,29.02,SSE,157,10.9,-999.0,89,-99.99,,,0.67,Acu-Link.com,2013-01-31 08:40:00,
2013-01-31 03:55:00,42.8,38.9,29.06,WSW,247,8.9,-999.0,86,-99.99,,,0.67,Acu-Link.com,2013-01-31 08:55:00,
2013-01-31 04:15:00,42.4,38.5,29.04,NNE,22,4.7,-999.0,86,-99.99,,,0.67,Acu-Link.com,2013-01-31 09:15:00,
2013-01-31 04:30:00,41.9,37.7,29.07,West,270,5.3,-999.0,85,-99.99,,,0.67,Acu-Link.com,2013-01-31 09:30:00,
2013-01-31 04:46:00,41.5,36.4,29.08,WNW,292,11.9,-999.0,82,-99.99,,,0.67,Acu-Link.com,2013-01-31 09:46:00,
2013-01-31 05:01:00,40.6,36.7,29.10,West,270,9.4,-999.0,86,-99.99,,,0.67,Acu-Link.com,2013-01-31 10:01:00,
2013-01-31 05:16:00,39.9,34.9,29.11,West,270,5.8,-999.0,82,-99.99,,,0.67,Acu-Link.com,2013-01-31 10:16:00,
2013-01-31 05:31:00,39.6,33.6,29.13,WSW,247,6.8,-999.0,79,-99.99,,,0.67,Acu-Link.com,2013-01-31 10:31:00,
2013-01-31 05:46:00,39.2,32.9,29.14,SSW,202,7.3,-999.0,78,-99.99,,,0.67,Acu-Link.com,2013-01-31 10:46:00,
2013-01-31 06:02:00,39.0,32.4,29.16,SW,225,4.7,-999.0,77,-99.99,,,0.67,Acu-Link.com,2013-01-31 11:02:00,
2013-01-31 06:17:00,38.7,31.8,29.19,West,270,7.8,-999.0,76,-99.99,,,0.67,Acu-Link.com,2013-01-31 11:17:00,
2013-01-31 06:32:00,38.3,30.4,29.20,West,270,12.5,-999.0,73,-99.99,,,0.67,Acu-Link.com,2013-01-31 11:32:00,
2013-01-31 06:47:00,38.1,29.5,29.22,WSW,247,6.3,-999.0,71,-99.99,,,0.67,Acu-Link.com,2013-01-31 11:47:00,
2013-01-31 07:02:00,37.6,29.1,29.23,WNW,292,5.8,-999.0,71,-99.99,,,0.67,Acu-Link.com,2013-01-31 12:02:00,
2013-01-31 07:17:00,37.2,28.7,29.24,SW,225,3.7,-999.0,71,-99.99,,,0.67,Acu-Link.com,2013-01-31 12:17:00,
2013-01-31 07:32:00,37.0,28.5,29.27,WNW,292,2.2,-999.0,71,-99.99,,,0.67,Acu-Link.com,2013-01-31 12:32:00,
2013-01-31 07:47:00,36.0,30.1,29.28,WSW,247,9.4,-999.0,79,-99.99,,,0.67,Acu-Link.com,2013-01-31 12:47:00,
2013-01-31 08:02:00,36.5,27.0,29.30,WSW,247,6.3,-999.0,68,-99.99,,,0.67,Acu-Link.com,2013-01-31 13:02:00,
2013-01-31 08:18:00,36.5,26.2,29.31,SW,225,8.9,-999.0,66,-99.99,,,0.67,Acu-Link.com,2013-01-31 13:18:00,
2013-01-31 08:33:00,36.3,25.7,29.33,West,270,10.9,-999.0,65,-99.99,,,0.67,Acu-Link.com,2013-01-31 13:33:00,
2013-01-31 08:48:00,36.1,27.3,29.32,ENE,67,5.8,-999.0,70,-99.99,,,0.67,Acu-Link.com,2013-01-31 13:48:00,
2013-01-31 09:03:00,36.3,27.8,29.33,SSW,202,5.3,-999.0,71,-99.99,,,0.67,Acu-Link.com,2013-01-31 14:03:00,
2013-01-31 09:18:00,36.5,27.3,29.34,West,270,7.8,-999.0,69,-99.99,,,0.67,Acu-Link.com,2013-01-31 14:18:00,
2013-01-31 09:33:00,35.6,27.8,29.34,WSW,247,5.3,-999.0,73,-99.99,,,0.67,Acu-Link.com,2013-01-31 14:33:00,
2013-01-31 09:48:00,35.8,28.0,29.34,SSW,202,6.3,-999.0,73,-99.99,,,0.67,Acu-Link.com,2013-01-31 14:48:00,
2013-01-31 10:03:00,36.9,27.3,29.36,NNW,337,9.9,-999.0,68,-99.99,,,0.67,Acu-Link.com,2013-01-31 15:03:00,
2013-01-31 10:18:00,37.4,26.4,29.36,SSW,202,6.3,-999.0,64,-99.99,,,0.67,Acu-Link.com,2013-01-31 15:18:00,
2013-01-31 10:34:00,37.0,25.2,29.38,WNW,292,8.3,-999.0,62,-99.99,,,0.67,Acu-Link.com,2013-01-31 15:34:00,
2013-01-31 10:49:00,36.3,24.9,29.39,SW,225,5.3,-999.0,63,-99.99,,,0.67,Acu-Link.com,2013-01-31 15:49:00,
2013-01-31 11:04:00,36.1,24.4,29.39,SW,225,6.8,-999.0,62,-99.99,,,0.67,Acu-Link.com,2013-01-31 16:04:00,
2013-01-31 11:19:00,36.1,28.6,29.40,South,180,7.8,-999.0,74,-99.99,,,0.67,Acu-Link.com,2013-01-31 16:19:00,
2013-01-31 11:34:00,34.2,28.4,29.41,NNE,22,4.2,-999.0,79,-99.99,,,0.67,Acu-Link.com,2013-01-31 16:34:00,
2013-01-31 11:49:00,33.1,26.7,29.43,WSW,247,4.2,-999.0,77,-99.99,,,0.67,Acu-Link.com,2013-01-31 16:49:00,
2013-01-31 12:05:00,30.0,28.2,29.44,WNW,292,9.4,-999.0,93,-99.99,,,0.67,Acu-Link.com,2013-01-31 17:05:00,
2013-01-31 12:20:00,31.8,27.2,29.45,West,270,7.8,-999.0,83,-99.99,,,0.67,Acu-Link.com,2013-01-31 17:20:00,
2013-01-31 12:35:00,32.7,25.3,29.45,SW,225,14.0,-999.0,74,-99.99,,,0.67,Acu-Link.com,2013-01-31 17:35:00,
2013-01-31 12:50:00,32.4,23.0,29.45,West,270,3.7,-999.0,68,-99.99,,,0.67,Acu-Link.com,2013-01-31 17:50:00,
2013-01-31 13:05:00,31.1,23.8,29.46,West,270,6.3,-999.0,74,-99.99,,,0.67,Acu-Link.com,2013-01-31 18:05:00,
2013-01-31 13:20:00,32.9,20.6,29.47,WSW,247,6.3,-999.0,60,-99.99,,,0.67,Acu-Link.com,2013-01-31 18:20:00,
2013-01-31 13:35:00,32.7,20.4,29.47,South,180,5.8,-999.0,60,-99.99,,,0.67,Acu-Link.com,2013-01-31 18:35:00,
2013-01-31 13:50:00,32.0,20.5,29.49,West,270,8.3,-999.0,62,-99.99,,,0.67,Acu-Link.com,2013-01-31 18:50:00,
2013-01-31 14:05:00,31.8,18.7,29.49,SE,135,7.8,-999.0,58,-99.99,,,0.67,Acu-Link.com,2013-01-31 19:05:00,
2013-01-31 14:21:00,31.8,19.1,29.50,WSW,247,4.7,-999.0,59,-99.99,,,0.67,Acu-Link.com,2013-01-31 19:21:00,
2013-01-31 14:36:00,31.1,19.6,29.50,WSW,247,6.3,-999.0,62,-99.99,,,0.67,Acu-Link.com,2013-01-31 19:36:00,
2013-01-31 14:51:00,31.5,20.0,29.51,WSW,247,5.8,-999.0,62,-99.99,,,0.67,Acu-Link.com,2013-01-31 19:51:00,
2013-01-31 15:06:00,31.8,19.9,29.52,SW,225,4.7,-999.0,61,-99.99,,,0.67,Acu-Link.com,2013-01-31 20:06:00,
2013-01-31 15:21:00,31.5,19.2,29.53,North,0,5.8,-999.0,60,-99.99,,,0.67,Acu-Link.com,2013-01-31 20:21:00,
2013-01-31 15:36:00,30.7,18.1,29.53,West,270,6.8,-999.0,59,-99.99,,,0.67,Acu-Link.com,2013-01-31 20:36:00,
2013-01-31 15:52:00,31.1,20.0,29.54,WSW,247,3.2,-999.0,63,-99.99,,,0.67,Acu-Link.com,2013-01-31 20:52:00,
2013-01-31 16:07:00,30.0,22.4,29.54,West,270,6.8,-999.0,73,-99.99,,,0.67,Acu-Link.com,2013-01-31 21:07:00,
2013-01-31 16:22:00,30.0,21.4,29.55,NNW,337,6.3,-999.0,70,-99.99,,,0.67,Acu-Link.com,2013-01-31 21:22:00,
2013-01-31 16:37:00,30.0,19.3,29.56,SW,225,7.8,-999.0,64,-99.99,,,0.67,Acu-Link.com,2013-01-31 21:37:00,
2013-01-31 16:52:00,28.9,19.3,29.56,West,270,7.8,-999.0,67,-99.99,,,0.67,Acu-Link.com,2013-01-31 21:52:00,
2013-01-31 17:07:00,27.9,19.4,29.58,SSW,202,10.9,-999.0,70,-99.99,,,0.67,Acu-Link.com,2013-01-31 22:07:00,
2013-01-31 17:23:00,27.7,16.8,29.60,West,270,8.3,-999.0,63,-99.99,,,0.67,Acu-Link.com,2013-01-31 22:23:00,
2013-01-31 17:38:00,27.1,16.2,29.60,SW,225,8.3,-999.0,63,-99.99,,,0.67,Acu-Link.com,2013-01-31 22:38:00,
2013-01-31 17:53:00,26.8,15.6,29.61,West,270,7.3,-999.0,62,-99.99,,,0.67,Acu-Link.com,2013-01-31 22:53:00,
2013-01-31 18:08:00,26.8,15.9,29.62,WSW,247,8.9,-999.0,63,-99.99,,,0.67,Acu-Link.com,2013-01-31 23:08:00,
2013-01-31 18:23:00,27.1,16.2,29.63,SSW,202,8.3,-999.0,63,-99.99,,,0.67,Acu-Link.com,2013-01-31 23:23:00,
2013-01-31 18:38:00,26.4,15.9,29.64,West,270,9.9,-999.0,64,-99.99,,,0.67,Acu-Link.com,2013-01-31 23:38:00,
2013-01-31 18:53:00,26.2,16.1,29.64,WSW,247,2.7,-999.0,65,-99.99,,,0.67,Acu-Link.com,2013-01-31 23:53:00,
2013-01-31 19:08:00,26.2,17.8,29.65,West,270,3.7,-999.0,70,-99.99,,,0.67,Acu-Link.com,2013-02-01 00:08:00,
2013-01-31 19:23:00,26.1,16.0,29.65,West,270,8.9,-999.0,65,-99.99,,,0.67,Acu-Link.com,2013-02-01 00:23:00,
2013-01-31 19:39:00,26.2,15.3,29.66,South,180,8.3,-999.0,63,-99.99,,,0.67,Acu-Link.com,2013-02-01 00:39:00,
2013-01-31 19:54:00,26.1,15.6,29.65,SW,225,5.3,-999.0,64,-99.99,,,0.67,Acu-Link.com,2013-02-01 00:54:00,
2013-01-31 20:09:00,26.1,17.0,29.65,SW,225,3.2,-999.0,68,-99.99,,,0.67,Acu-Link.com,2013-02-01 01:09:00,
2013-01-31 20:24:00,26.1,17.3,29.66,West,270,2.7,-999.0,69,-99.99,,,0.67,Acu-Link.com,2013-02-01 01:24:00,
2013-01-31 20:39:00,25.9,17.2,29.66,West,270,4.7,-999.0,69,-99.99,,,0.67,Acu-Link.com,2013-02-01 01:39:00,
2013-01-31 20:54:00,25.7,17.0,29.67,West,270,6.8,-999.0,69,-99.99,,,0.67,Acu-Link.com,2013-02-01 01:54:00,
2013-01-31 21:09:00,25.3,17.2,29.66,SW,225,4.7,-999.0,71,-99.99,,,0.67,Acu-Link.com,2013-02-01 02:09:00,
2013-01-31 21:24:00,25.2,17.8,29.65,SSE,157,3.2,-999.0,73,-99.99,,,0.67,Acu-Link.com,2013-02-01 02:24:00,
2013-01-31 21:39:00,25.2,18.1,29.66,West,270,6.8,-999.0,74,-99.99,,,0.67,Acu-Link.com,2013-02-01 02:39:00,
2013-01-31 21:55:00,25.2,18.4,29.66,SW,225,2.7,-999.0,75,-99.99,,,0.67,Acu-Link.com,2013-02-01 02:55:00,
2013-01-31 22:10:00,25.0,18.2,29.66,SW,225,2.7,-999.0,75,-99.99,,,0.67,Acu-Link.com,2013-02-01 03:10:00,
2013-01-31 22:25:00,24.1,21.3,29.65,West,270,8.9,-999.0,89,-99.99,,,0.67,Acu-Link.com,2013-02-01 03:25:00,
2013-01-31 22:40:00,23.5,22.5,29.65,NW,315,2.2,-999.0,96,-99.99,,,0.67,Acu-Link.com,2013-02-01 03:40:00,
2013-01-31 22:55:00,23.0,22.0,29.64,SW,225,2.7,-999.0,96,-99.99,,,0.67,Acu-Link.com,2013-02-01 03:55:00,
2013-01-31 23:10:00,22.5,21.3,29.65,SW,225,1.7,-999.0,95,-99.99,,,0.67,Acu-Link.com,2013-02-01 04:10:00,
2013-01-31 23:26:00,22.8,19.8,29.65,West,270,4.7,-999.0,88,-99.99,,,0.67,Acu-Link.com,2013-02-01 04:26:00,
2013-01-31 23:41:00,23.4,19.8,29.65,SSW,202,2.2,-999.0,86,-99.99,,,0.67,Acu-Link.com,2013-02-01 04:41:00,
2013-01-31 23:56:00,23.7,20.9,29.66,West,270,4.2,-999.0,89,-99.99,,,0.67,Acu-Link.com,2013-02-01 04:56:00,